Kingston, Idaho
Current Conditions -  °F | °C
As of 1:17 AM on Friday 24 Oct 2014 (Local Time) from KMLP Reporting Station
Overcast Overcast  
Wind Chill: 24°   Ceiling: 1200
Heat Index: 33°   Visibility: 10mi
Dew Point: 31°   Wind: 13mph
Humidity: 92%   Direction: 230°SW
Pressure: 30.01"   Gusts: 29mph
Location:  47.55°N, 116.27°W
Report Text: KMLP 240817Z AUTO 23011G25KT 200V270 10SM FEW007 BKN012 OVC020 01/M01 A3001 RMK AO2 T00061006
Loading
Personal Weather Stations






























Interactive Weather Map
Tropical Storm Tracking
New forecast layout! Learn more

10-Day Weather Forecast

Advertisements
Track Severe Weather on mobile